Time;durP1;ratioP1;P1;durP2;ratioP2;P2;SDS_P1;SDS_P2;PMS_P1;PMS_P2;Temp;Humidity;BMP_temperature;BMP_pressure;BME280_temperature;BME280_humidity;BME280_pressure;Samples;Min_cycle;Max_cycle;Signal;HPM_P1;HPM_P2
2021/04/02 00:02:21;;;;;;;2.72;1.65;;;;;;;;;;5114322;28;20422;-58
2021/04/02 00:04:47;;;;;;;1.95;1.48;;;;;;;;;;5111832;28;20360;-56
2021/04/02 00:07:12;;;;;;;1.60;1.30;;;;;;;;;;5122609;27;20037;-56
2021/04/02 00:09:37;;;;;;;1.95;1.80;;;;;;;;;;5119014;27;20023;-56
2021/04/02 00:12:03;;;;;;;1.48;1.38;;;;;;;;;;5125382;27;20019;-56
2021/04/02 00:14:28;;;;;;;3.47;1.77;;;;;;;;;;5131895;27;20458;-57
2021/04/02 00:16:53;;;;;;;1.95;1.73;;;;;;;;;;5133550;27;20138;-55
2021/04/02 00:19:18;;;;;;;1.80;1.70;;;;;;;;;;5133374;27;20019;-58
2021/04/02 00:21:44;;;;;;;3.08;1.80;;;;;;;;;;5134698;27;20042;-58
2021/04/02 00:24:09;;;;;;;2.10;1.90;;;;;;;;;;5126796;27;20108;-58
2021/04/02 00:26:34;;;;;;;1.45;1.02;;;;;;;;;;5127858;27;20161;-56
2021/04/02 00:28:59;;;;;;;2.10;1.55;;;;;;;;;;5114047;28;20521;-58
2021/04/02 00:31:25;;;;;;;3.90;1.67;;;;;;;;;;5113512;28;20514;-56
2021/04/02 00:33:50;;;;;;;2.97;1.77;;;;;;;;;;5118537;27;20023;-56
2021/04/02 00:36:16;;;;;;;2.15;1.95;;;;;;;;;;5134333;27;20015;-53
2021/04/02 00:38:41;;;;;;;2.50;2.30;;;;;;;;;;5134335;27;20047;-55
2021/04/02 00:41:08;;;;;;;2.53;2.33;;;;;;;;;;5130569;27;20088;-56
2021/04/02 00:43:35;;;;;;;2.72;2.40;;;;;;;;;;5113052;27;20016;-56
2021/04/02 00:46:00;;;;;;;2.97;2.67;;;;;;;;;;5114159;28;20378;-57
2021/04/02 00:48:25;;;;;;;3.30;2.95;;;;;;;;;;5126691;27;20110;-56
2021/04/02 00:50:52;;;;;;;3.03;2.72;;;;;;;;;;5133737;27;20051;-57
2021/04/02 00:53:18;;;;;;;3.53;2.67;;;;;;;;;;5131923;27;20034;-60
2021/04/02 00:55:44;;;;;;;3.33;2.80;;;;;;;;;;5132011;27;20016;-57
2021/04/02 00:58:12;;;;;;;3.95;2.88;;;;;;;;;;5133587;27;20038;-57
2021/04/02 01:00:37;;;;;;;3.38;3.00;;;;;;;;;;5121991;27;20023;-58
2021/04/02 01:03:03;;;;;;;3.05;2.75;;;;;;;;;;5127094;27;20019;-57
2021/04/02 01:05:31;;;;;;;3.13;2.80;;;;;;;;;;5123791;27;20019;-57
2021/04/02 01:07:58;;;;;;;4.53;3.30;;;;;;;;;;5124829;27;20031;-58
2021/04/02 01:10:23;;;;;;;3.72;3.10;;;;;;;;;;5118475;27;20031;-57
2021/04/02 01:13:09;;;;;;;4.38;3.30;;;;;;;;;;5126657;27;20484;-56
2021/04/02 01:15:34;;;;;;;4.28;3.47;;;;;;;;;;5130543;27;20043;-55
2021/04/02 01:18:01;;;;;;;4.80;3.22;;;;;;;;;;5128226;27;20384;-56
2021/04/02 01:20:29;;;;;;;4.22;3.80;;;;;;;;;;5133431;27;20428;-55
2021/04/02 01:22:57;;;;;;;4.50;3.63;;;;;;;;;;5117315;27;20076;-57
2021/04/02 01:25:25;;;;;;;5.10;4.05;;;;;;;;;;5111827;27;20110;-56
2021/04/02 01:27:58;;;;;;;4.25;3.53;;;;;;;;;;5114681;27;20103;-55
2021/04/02 01:30:24;;;;;;;4.28;3.88;;;;;;;;;;5112666;28;20023;-56
2021/04/02 01:32:50;;;;;;;4.95;3.75;;;;;;;;;;5128864;27;20370;-55
2021/04/02 01:35:17;;;;;;;4.63;4.22;;;;;;;;;;5117786;27;20114;-57
2021/04/02 01:37:49;;;;;;;4.95;3.85;;;;;;;;;;5119045;28;20031;-58
2021/04/02 01:40:14;;;;;;;4.55;4.07;;;;;;;;;;5132887;27;20023;-58
2021/04/02 01:42:41;;;;;;;6.18;3.90;;;;;;;;;;5119044;27;20027;-56
2021/04/02 01:45:07;;;;;;;6.25;4.03;;;;;;;;;;5109770;28;20032;-57
2021/04/02 01:47:32;;;;;;;4.18;3.78;;;;;;;;;;5114774;28;20164;-56
2021/04/02 01:49:59;;;;;;;4.90;4.47;;;;;;;;;;5129794;27;20077;-54
2021/04/02 01:52:25;;;;;;;5.32;4.43;;;;;;;;;;5120116;27;20036;-57
2021/04/02 01:54:51;;;;;;;5.00;4.38;;;;;;;;;;5109616;28;20030;-57
2021/04/02 01:57:17;;;;;;;4.95;4.45;;;;;;;;;;5112463;28;20018;-56
2021/04/02 01:59:43;;;;;;;5.07;4.38;;;;;;;;;;5114193;28;20028;-54
2021/04/02 02:02:08;;;;;;;4.80;3.70;;;;;;;;;;5127344;28;20028;-56
2021/04/02 02:04:35;;;;;;;7.30;5.03;;;;;;;;;;5109947;28;20034;-55
2021/04/02 02:07:01;;;;;;;5.57;4.68;;;;;;;;;;5113438;28;20026;-56
2021/04/02 02:09:28;;;;;;;6.65;5.60;;;;;;;;;;5128226;27;20446;-57
2021/04/02 02:11:56;;;;;;;6.72;5.50;;;;;;;;;;5132136;27;20466;-57
2021/04/02 02:14:22;;;;;;;5.65;4.43;;;;;;;;;;5129176;27;20019;-54
2021/04/02 02:16:49;;;;;;;6.40;5.40;;;;;;;;;;5133214;27;20102;-57
2021/04/02 02:19:17;;;;;;;5.28;4.03;;;;;;;;;;5131865;27;20517;-57
2021/04/02 02:21:47;;;;;;;7.47;5.00;;;;;;;;;;5133076;27;20026;-57
2021/04/02 02:24:13;;;;;;;6.05;4.95;;;;;;;;;;5129955;27;20389;-55
2021/04/02 02:26:42;;;;;;;5.50;4.50;;;;;;;;;;5119650;27;20028;-53
2021/04/02 02:29:07;;;;;;;6.25;5.63;;;;;;;;;;5116437;28;20080;-55
2021/04/02 02:31:33;;;;;;;6.97;6.07;;;;;;;;;;5132169;27;20023;-56
2021/04/02 02:33:59;;;;;;;7.00;5.90;;;;;;;;;;5129851;28;20463;-54
2021/04/02 02:36:25;;;;;;;8.23;6.50;;;;;;;;;;5132497;27;20058;-57
2021/04/02 02:38:50;;;;;;;9.05;6.47;;;;;;;;;;5131131;27;20077;-57
2021/04/02 02:41:16;;;;;;;7.22;6.00;;;;;;;;;;5132156;27;20023;-56
2021/04/02 02:43:41;;;;;;;7.90;6.55;;;;;;;;;;5119231;27;20019;-56
2021/04/02 02:46:06;;;;;;;7.85;6.60;;;;;;;;;;5120609;27;20030;-56
2021/04/02 02:48:31;;;;;;;7.43;6.18;;;;;;;;;;5136583;27;20019;-55
2021/04/02 02:50:57;;;;;;;9.80;6.93;;;;;;;;;;5135483;27;20047;-55
2021/04/02 02:53:25;;;;;;;9.05;7.13;;;;;;;;;;5131868;27;20031;-56
2021/04/02 02:55:51;;;;;;;6.97;5.90;;;;;;;;;;5124972;27;20046;-56
2021/04/02 02:58:17;;;;;;;8.65;6.90;;;;;;;;;;5135573;27;20470;-56
2021/04/02 03:00:43;;;;;;;8.32;6.03;;;;;;;;;;5120179;27;20023;-56
2021/04/02 03:03:13;;;;;;;7.95;6.53;;;;;;;;;;5115314;27;20024;-56
2021/04/02 03:05:38;;;;;;;7.00;6.30;;;;;;;;;;5113671;27;20028;-57
2021/04/02 03:08:05;;;;;;;6.45;5.72;;;;;;;;;;5135533;27;20347;-57
2021/04/02 03:10:32;;;;;;;7.55;5.93;;;;;;;;;;5136024;27;20031;-56
2021/04/02 03:12:58;;;;;;;8.95;7.10;;;;;;;;;;5121000;27;20031;-57
2021/04/02 03:15:25;;;;;;;7.70;6.50;;;;;;;;;;5112377;28;20027;-57
2021/04/02 03:17:56;;;;;;;7.68;6.28;;;;;;;;;;5129392;27;20426;-56
2021/04/02 03:20:22;;;;;;;8.13;6.55;;;;;;;;;;5115004;27;20497;-56
2021/04/02 03:22:48;;;;;;;7.22;6.15;;;;;;;;;;5115612;28;20020;-56
2021/04/02 03:25:15;;;;;;;7.95;6.38;;;;;;;;;;5121194;27;20038;-58
2021/04/02 03:27:41;;;;;;;7.45;6.40;;;;;;;;;;5130707;27;20083;-55
2021/04/02 03:30:07;;;;;;;6.03;5.07;;;;;;;;;;5114805;28;20027;-55
2021/04/02 03:32:35;;;;;;;7.20;5.40;;;;;;;;;;5115299;28;20046;-56
2021/04/02 03:35:02;;;;;;;6.45;5.28;;;;;;;;;;5130506;27;20466;-55
2021/04/02 03:37:27;;;;;;;7.72;6.28;;;;;;;;;;5133204;27;20438;-58
2021/04/02 03:39:53;;;;;;;6.53;5.38;;;;;;;;;;5114397;27;20467;-55
2021/04/02 03:42:19;;;;;;;6.35;5.30;;;;;;;;;;5114773;27;20113;-54
2021/04/02 03:44:45;;;;;;;8.18;6.22;;;;;;;;;;5112852;27;20027;-55
2021/04/02 03:47:14;;;;;;;7.57;6.03;;;;;;;;;;5114762;28;20110;-56
2021/04/02 03:49:39;;;;;;;5.60;4.88;;;;;;;;;;5134264;27;20453;-56
2021/04/02 03:52:07;;;;;;;4.30;3.72;;;;;;;;;;5116354;27;20059;-57
2021/04/02 03:54:33;;;;;;;2.80;2.47;;;;;;;;;;5111828;27;20041;-53
2021/04/02 03:56:59;;;;;;;3.00;2.20;;;;;;;;;;5114430;28;20020;-56
2021/04/02 03:59:25;;;;;;;2.63;2.10;;;;;;;;;;5126586;27;20026;-57
2021/04/02 04:01:52;;;;;;;2.15;1.85;;;;;;;;;;5114439;28;20359;-57
2021/04/02 04:04:18;;;;;;;3.07;2.30;;;;;;;;;;5115371;27;20031;-57
2021/04/02 04:06:46;;;;;;;2.50;1.95;;;;;;;;;;5128941;27;20033;-56
2021/04/02 04:09:13;;;;;;;2.65;2.08;;;;;;;;;;5114736;27;20028;-56
2021/04/02 04:11:40;;;;;;;2.67;2.40;;;;;;;;;;5130893;27;20087;-58
2021/04/02 04:14:06;;;;;;;2.70;2.13;;;;;;;;;;5111389;28;20031;-58
2021/04/02 04:16:32;;;;;;;2.65;1.50;;;;;;;;;;5112958;28;20016;-58
2021/04/02 04:18:58;;;;;;;2.50;1.85;;;;;;;;;;5133806;27;20038;-58
2021/04/02 04:21:25;;;;;;;2.25;1.70;;;;;;;;;;5134481;27;20019;-56
2021/04/02 04:23:50;;;;;;;2.92;2.08;;;;;;;;;;5131435;27;20514;-56
2021/04/02 04:26:16;;;;;;;2.72;2.13;;;;;;;;;;5128322;27;20039;-56
2021/04/02 04:28:41;;;;;;;1.98;1.58;;;;;;;;;;5129105;27;20062;-57
2021/04/02 04:31:09;;;;;;;1.88;1.77;;;;;;;;;;5132998;27;20027;-55
2021/04/02 04:33:35;;;;;;;2.90;2.07;;;;;;;;;;5114650;27;20307;-56
2021/04/02 04:36:01;;;;;;;2.70;1.95;;;;;;;;;;5114062;27;20023;-57
2021/04/02 04:38:27;;;;;;;1.43;1.30;;;;;;;;;;5119404;27;20031;-57
2021/04/02 04:40:53;;;;;;;1.63;1.53;;;;;;;;;;5113913;27;20020;-55
2021/04/02 04:43:18;;;;;;;4.13;1.88;;;;;;;;;;5128231;27;20015;-56
2021/04/02 04:45:44;;;;;;;2.58;1.48;;;;;;;;;;5119360;27;20385;-57
2021/04/02 04:48:09;;;;;;;2.20;1.35;;;;;;;;;;5133300;27;20050;-57
2021/04/02 04:50:35;;;;;;;2.27;1.50;;;;;;;;;;5134048;27;20046;-56
2021/04/02 04:53:01;;;;;;;1.50;1.23;;;;;;;;;;5132180;27;20038;-53
2021/04/02 04:55:27;;;;;;;1.60;1.27;;;;;;;;;;5129325;27;20019;-58
2021/04/02 04:57:54;;;;;;;1.40;1.17;;;;;;;;;;5124162;27;20016;-58
2021/04/02 05:00:21;;;;;;;1.77;1.30;;;;;;;;;;5133341;27;20444;-56
2021/04/02 05:02:46;;;;;;;1.60;1.40;;;;;;;;;;5125340;27;20027;-57
2021/04/02 05:05:22;;;;;;;1.27;1.17;;;;;;;;;;5110027;28;20377;-57
2021/04/02 05:07:47;;;;;;;;;;;;;;;;;;5125389;27;20061;-56
2021/04/02 05:10:12;;;;;;;1.25;0.95;;;;;;;;;;5127512;27;19907;-57
2021/04/02 05:12:39;;;;;;;1.50;1.40;;;;;;;;;;5126893;27;20076;-55
2021/04/02 05:15:05;;;;;;;1.27;1.17;;;;;;;;;;5128915;27;20123;-53
2021/04/02 05:17:31;;;;;;;1.50;1.40;;;;;;;;;;5130045;27;20110;-57
2021/04/02 05:19:56;;;;;;;1.70;1.48;;;;;;;;;;5133557;27;20060;-58
2021/04/02 05:22:21;;;;;;;1.25;1.15;;;;;;;;;;5133119;27;20015;-55
2021/04/02 05:24:47;;;;;;;1.40;1.30;;;;;;;;;;5130612;27;20031;-56
2021/04/02 05:27:12;;;;;;;3.17;1.80;;;;;;;;;;5131619;27;20011;-58
2021/04/02 05:29:37;;;;;;;2.50;1.83;;;;;;;;;;5132900;27;20114;-58
2021/04/02 05:32:02;;;;;;;1.70;1.60;;;;;;;;;;5130552;27;20038;-58
2021/04/02 05:34:28;;;;;;;3.72;2.35;;;;;;;;;;5109891;28;20039;-56
2021/04/02 05:36:53;;;;;;;2.13;1.63;;;;;;;;;;5113316;28;20020;-57
2021/04/02 05:39:18;;;;;;;4.45;2.42;;;;;;;;;;5132546;28;20023;-55
2021/04/02 05:41:53;;;;;;;11.20;5.03;;;;;;;;;;5132907;28;20019;-57
2021/04/02 05:44:19;;;;;;;;;;;;;;;;;;5118591;27;20027;-55
2021/04/02 05:46:44;;;;;;;2.95;2.20;;;;;;;;;;5112888;28;19926;-57
2021/04/02 05:49:10;;;;;;;2.03;1.73;;;;;;;;;;5123614;28;20098;-57
2021/04/02 05:51:36;;;;;;;6.88;3.38;;;;;;;;;;5114438;28;20055;-56
2021/04/02 05:54:01;;;;;;;3.15;2.13;;;;;;;;;;5114816;28;20026;-58
2021/04/02 05:56:27;;;;;;;2.35;1.88;;;;;;;;;;5132963;27;20015;-54
2021/04/02 05:58:52;;;;;;;6.13;2.92;;;;;;;;;;5132041;28;20466;-56
2021/04/02 06:01:18;;;;;;;2.78;1.75;;;;;;;;;;5132211;27;20027;-58
2021/04/02 06:03:44;;;;;;;2.28;1.90;;;;;;;;;;5130539;27;20019;-54
2021/04/02 06:06:12;;;;;;;2.03;1.70;;;;;;;;;;5130444;27;20072;-57
2021/04/02 06:08:39;;;;;;;1.45;1.20;;;;;;;;;;5117202;28;20651;-56
2021/04/02 06:11:04;;;;;;;3.30;1.70;;;;;;;;;;5125348;27;20072;-57
2021/04/02 06:13:29;;;;;;;1.48;0.93;;;;;;;;;;5111626;27;20028;-56
2021/04/02 06:15:55;;;;;;;1.58;1.13;;;;;;;;;;5112945;28;20030;-58
2021/04/02 06:18:23;;;;;;;3.35;1.58;;;;;;;;;;5125928;27;20019;-56
2021/04/02 06:20:49;;;;;;;2.42;1.15;;;;;;;;;;5120503;27;20019;-58
2021/04/02 06:23:16;;;;;;;2.60;1.35;;;;;;;;;;5119394;27;20020;-57
2021/04/02 06:25:48;;;;;;;3.58;1.48;;;;;;;;;;5127910;27;20022;-56
2021/04/02 06:28:18;;;;;;;2.20;1.40;;;;;;;;;;5131431;27;20373;-53
2021/04/02 06:30:43;;;;;;;2.53;1.55;;;;;;;;;;5132605;27;20015;-55
2021/04/02 06:33:09;;;;;;;3.25;2.05;;;;;;;;;;5128413;27;20381;-55
2021/04/02 06:35:35;;;;;;;4.70;1.70;;;;;;;;;;5113689;28;20028;-56
2021/04/02 06:38:01;;;;;;;2.80;1.27;;;;;;;;;;5116166;27;20023;-57
2021/04/02 06:40:26;;;;;;;2.13;1.65;;;;;;;;;;5133446;27;20023;-55
2021/04/02 06:42:51;;;;;;;2.08;1.85;;;;;;;;;;5135667;27;20011;-56
2021/04/02 06:45:19;;;;;;;3.58;2.22;;;;;;;;;;5126676;27;20064;-55
2021/04/02 06:47:44;;;;;;;1.92;1.67;;;;;;;;;;5129285;27;20026;-57
2021/04/02 06:50:19;;;;;;;1.00;0.90;;;;;;;;;;5134956;27;20118;-56
2021/04/02 06:52:49;;;;;;;1.42;1.17;;;;;;;;;;5125004;27;20106;-56
2021/04/02 06:55:14;;;;;;;1.27;0.90;;;;;;;;;;5127414;27;20363;-54
2021/04/02 06:57:46;;;;;;;4.25;2.50;;;;;;;;;;5131742;27;20021;-56
2021/04/02 07:00:12;;;;;;;6.03;3.60;;;;;;;;;;5134380;27;20462;-56
2021/04/02 07:02:39;;;;;;;2.67;2.10;;;;;;;;;;5132713;27;20027;-56
2021/04/02 07:05:04;;;;;;;3.17;2.50;;;;;;;;;;5131872;27;20030;-54
2021/04/02 07:07:30;;;;;;;2.13;1.80;;;;;;;;;;5127771;27;20102;-51
2021/04/02 07:09:56;;;;;;;1.40;1.10;;;;;;;;;;5119320;27;20027;-55
2021/04/02 07:12:21;;;;;;;2.75;1.13;;;;;;;;;;5122750;27;20041;-52
2021/04/02 07:14:47;;;;;;;1.48;1.10;;;;;;;;;;5122467;27;20028;-57
2021/04/02 07:17:12;;;;;;;1.73;1.15;;;;;;;;;;5124200;27;20468;-55
2021/04/02 07:19:38;;;;;;;2.05;1.30;;;;;;;;;;5120170;27;20374;-53
2021/04/02 07:22:04;;;;;;;1.92;1.20;;;;;;;;;;5126267;27;20025;-57
2021/04/02 07:24:29;;;;;;;2.05;1.48;;;;;;;;;;5120587;27;20360;-57
2021/04/02 07:26:54;;;;;;;1.08;0.93;;;;;;;;;;5131350;27;20035;-57
2021/04/02 07:29:21;;;;;;;2.00;1.23;;;;;;;;;;5120438;27;20463;-55
2021/04/02 07:31:48;;;;;;;0.60;0.60;;;;;;;;;;5116754;27;20547;-55
2021/04/02 07:34:14;;;;;;;1.20;0.82;;;;;;;;;;5116623;27;20106;-57
2021/04/02 07:36:40;;;;;;;1.25;0.55;;;;;;;;;;5128887;27;20484;-56
2021/04/02 07:39:06;;;;;;;0.85;0.70;;;;;;;;;;5132011;27;20031;-54
2021/04/02 07:41:35;;;;;;;1.50;0.70;;;;;;;;;;5115350;27;20516;-55
2021/04/02 07:44:01;;;;;;;1.00;0.73;;;;;;;;;;5118339;27;20016;-54
2021/04/02 07:46:27;;;;;;;1.00;0.57;;;;;;;;;;5132473;27;20357;-54
2021/04/02 07:49:02;;;;;;;0.98;0.90;;;;;;;;;;5131727;27;20023;-55
2021/04/02 07:51:46;;;;;;;0.97;0.90;;;;;;;;;;5127326;27;20463;-57
2021/04/02 07:54:21;;;;;;;1.00;0.90;;;;;;;;;;5131342;27;20023;-56
2021/04/02 07:56:49;;;;;;;1.77;0.80;;;;;;;;;;5130325;27;20064;-56
2021/04/02 07:59:14;;;;;;;1.75;0.60;;;;;;;;;;5119676;27;20026;-58
2021/04/02 08:01:55;;;;;;;2.45;0.50;;;;;;;;;;5122410;27;20099;-55
2021/04/02 08:04:21;;;;;;;0.73;0.55;;;;;;;;;;5118843;27;20102;-56
2021/04/02 08:06:48;;;;;;;0.80;0.40;;;;;;;;;;5117276;27;20098;-55
2021/04/02 08:09:13;;;;;;;1.20;0.80;;;;;;;;;;5133001;27;20022;-58
2021/04/02 08:11:45;;;;;;;1.05;0.60;;;;;;;;;;5133975;27;20011;-58
2021/04/02 08:14:12;;;;;;;1.67;0.73;;;;;;;;;;5124512;27;20058;-56
2021/04/02 08:16:38;;;;;;;1.58;0.80;;;;;;;;;;5120089;27;20015;-57
2021/04/02 08:19:04;;;;;;;1.85;0.70;;;;;;;;;;5133839;27;20008;-56
2021/04/02 08:21:29;;;;;;;1.55;0.57;;;;;;;;;;5120401;27;20016;-57
2021/04/02 08:23:57;;;;;;;1.75;0.95;;;;;;;;;;5121159;27;20023;-58
2021/04/02 08:26:27;;;;;;;2.05;1.08;;;;;;;;;;5131926;27;20027;-57
2021/04/02 08:28:54;;;;;;;1.98;0.65;;;;;;;;;;5133738;27;20106;-55
2021/04/02 08:31:19;;;;;;;1.58;0.93;;;;;;;;;;5132543;27;20051;-57
2021/04/02 08:33:44;;;;;;;1.85;1.20;;;;;;;;;;5131549;27;20031;-55
2021/04/02 08:36:10;;;;;;;3.50;1.00;;;;;;;;;;5133864;27;20454;-57
2021/04/02 08:38:35;;;;;;;1.80;1.10;;;;;;;;;;5133051;27;20059;-52
2021/04/02 08:41:14;;;;;;;2.10;1.40;;;;;;;;;;5130379;27;20489;-57
2021/04/02 08:43:40;;;;;;;2.03;1.38;;;;;;;;;;5119248;27;20500;-57
2021/04/02 08:46:05;;;;;;;1.92;1.50;;;;;;;;;;5134505;27;20030;-57
2021/04/02 08:48:30;;;;;;;2.40;1.70;;;;;;;;;;5134568;27;20019;-57
2021/04/02 08:50:57;;;;;;;1.52;1.10;;;;;;;;;;5131470;27;20043;-56
2021/04/02 08:53:22;;;;;;;1.70;1.40;;;;;;;;;;5114705;27;20035;-57
2021/04/02 08:55:47;;;;;;;2.10;1.10;;;;;;;;;;5114952;27;20016;-55
2021/04/02 08:58:13;;;;;;;1.95;1.15;;;;;;;;;;5131504;27;20046;-55
2021/04/02 09:00:38;;;;;;;2.30;1.40;;;;;;;;;;5133545;27;20092;-56
2021/04/02 09:03:05;;;;;;;1.83;1.30;;;;;;;;;;5133703;27;20027;-56
2021/04/02 09:05:30;;;;;;;4.45;2.88;;;;;;;;;;5130769;27;20533;-54
2021/04/02 09:07:58;;;;;;;7.55;4.47;;;;;;;;;;5125346;27;20232;-57
2021/04/02 09:10:24;;;;;;;5.78;3.47;;;;;;;;;;5122033;27;20053;-54
2021/04/02 09:12:50;;;;;;;7.53;3.70;;;;;;;;;;5115431;27;20028;-56
2021/04/02 09:15:24;;;;;;;4.40;2.70;;;;;;;;;;5128997;27;20027;-56
2021/04/02 09:17:49;;;;;;;4.00;2.15;;;;;;;;;;5133729;27;20416;-54
2021/04/02 09:20:15;;;;;;;3.90;1.92;;;;;;;;;;5133012;27;20015;-57
2021/04/02 09:22:44;;;;;;;2.85;1.63;;;;;;;;;;5133555;27;20381;-57
2021/04/02 09:25:17;;;;;;;3.10;2.03;;;;;;;;;;5129893;27;20466;-57
2021/04/02 09:27:43;;;;;;;2.67;1.80;;;;;;;;;;5133489;27;20047;-55
2021/04/02 09:30:09;;;;;;;2.03;1.35;;;;;;;;;;5130783;27;20065;-52
2021/04/02 09:32:34;;;;;;;1.15;0.90;;;;;;;;;;5133325;27;20020;-57
2021/04/02 09:35:00;;;;;;;2.35;1.73;;;;;;;;;;5129607;27;20067;-55
2021/04/02 09:37:26;;;;;;;1.30;1.20;;;;;;;;;;5132522;27;20015;-58
2021/04/02 09:39:57;;;;;;;1.45;1.20;;;;;;;;;;5133004;27;20039;-57
2021/04/02 09:42:22;;;;;;;1.58;1.35;;;;;;;;;;5131378;27;20023;-54
2021/04/02 09:44:47;;;;;;;1.25;1.13;;;;;;;;;;5130210;27;20031;-53
2021/04/02 09:47:13;;;;;;;4.13;3.70;;;;;;;;;;5128180;27;20029;-55
2021/04/02 09:49:39;;;;;;;1.92;1.65;;;;;;;;;;5118075;28;20032;-56
2021/04/02 09:52:04;;;;;;;1.30;1.20;;;;;;;;;;5132687;27;20023;-56
2021/04/02 09:54:33;;;;;;;1.73;1.52;;;;;;;;;;5131882;27;20118;-54
2021/04/02 09:57:00;;;;;;;2.47;1.40;;;;;;;;;;5124781;27;20462;-55
2021/04/02 09:59:26;;;;;;;1.10;0.95;;;;;;;;;;5136061;27;20410;-57
2021/04/02 10:01:51;;;;;;;1.83;1.65;;;;;;;;;;5136521;27;20107;-57
2021/04/02 10:04:16;;;;;;;2.92;1.77;;;;;;;;;;5131779;27;20019;-57
2021/04/02 10:06:42;;;;;;;3.40;1.75;;;;;;;;;;5136762;27;20102;-55
2021/04/02 10:09:08;;;;;;;1.83;1.33;;;;;;;;;;5116469;28;20058;-57
2021/04/02 10:11:35;;;;;;;5.25;1.88;;;;;;;;;;5125039;27;20595;-56
2021/04/02 10:14:00;;;;;;;3.15;1.95;;;;;;;;;;5132834;27;20472;-54
2021/04/02 10:16:26;;;;;;;4.60;2.42;;;;;;;;;;5136851;27;20379;-56
2021/04/02 10:18:52;;;;;;;5.30;3.40;;;;;;;;;;5134062;27;20022;-57
2021/04/02 10:21:19;;;;;;;4.60;2.25;;;;;;;;;;5126782;27;20019;-56
2021/04/02 10:23:44;;;;;;;4.85;2.72;;;;;;;;;;5125778;27;20019;-55
2021/04/02 10:26:10;;;;;;;6.90;4.28;;;;;;;;;;5134872;27;20034;-54
2021/04/02 10:28:36;;;;;;;7.20;4.60;;;;;;;;;;5136310;27;20026;-57
2021/04/02 10:31:01;;;;;;;7.88;5.35;;;;;;;;;;5136367;27;20023;-55
2021/04/02 10:33:26;;;;;;;8.02;4.15;;;;;;;;;;5132844;27;20108;-58
2021/04/02 10:35:52;;;;;;;8.93;6.25;;;;;;;;;;5136169;27;20382;-58
2021/04/02 10:38:17;;;;;;;6.50;5.40;;;;;;;;;;5131765;27;20081;-58
2021/04/02 10:40:43;;;;;;;6.25;5.15;;;;;;;;;;5121816;27;20019;-58
2021/04/02 10:43:08;;;;;;;5.65;3.90;;;;;;;;;;5134201;27;20049;-58
2021/04/02 10:45:34;;;;;;;7.45;4.93;;;;;;;;;;5118571;27;20024;-56
2021/04/02 10:47:59;;;;;;;5.28;3.53;;;;;;;;;;5124098;27;20019;-56
2021/04/02 10:50:25;;;;;;;6.32;5.10;;;;;;;;;;5134876;27;20047;-58
2021/04/02 10:52:51;;;;;;;6.03;5.18;;;;;;;;;;5135598;27;20049;-57
2021/04/02 10:55:17;;;;;;;6.60;4.43;;;;;;;;;;5125240;27;20019;-56
2021/04/02 10:57:42;;;;;;;4.97;4.40;;;;;;;;;;5126167;27;20015;-55
2021/04/02 11:00:08;;;;;;;7.97;5.60;;;;;;;;;;5136019;27;20022;-56
2021/04/02 11:02:33;;;;;;;5.97;5.05;;;;;;;;;;5124485;27;20016;-55
2021/04/02 11:04:59;;;;;;;5.80;4.60;;;;;;;;;;5116204;27;20011;-57
2021/04/02 11:07:25;;;;;;;5.00;4.47;;;;;;;;;;5128579;27;20413;-57
2021/04/02 11:09:50;;;;;;;5.22;4.28;;;;;;;;;;5134730;27;20030;-54
2021/04/02 11:12:15;;;;;;;5.53;4.47;;;;;;;;;;5129426;27;20035;-56
2021/04/02 11:14:41;;;;;;;4.28;3.75;;;;;;;;;;5129821;27;20023;-57
2021/04/02 11:17:06;;;;;;;4.88;3.60;;;;;;;;;;5134952;27;20157;-57
2021/04/02 11:19:31;;;;;;;3.92;3.60;;;;;;;;;;5135160;27;20015;-56
2021/04/02 11:21:57;;;;;;;3.78;3.10;;;;;;;;;;5135677;27;20026;-56
2021/04/02 11:24:22;;;;;;;4.07;3.78;;;;;;;;;;5130980;27;20030;-54
2021/04/02 11:26:47;;;;;;;5.78;3.25;;;;;;;;;;5130886;27;20027;-56
2021/04/02 11:29:12;;;;;;;3.65;3.00;;;;;;;;;;5133392;27;20019;-57
2021/04/02 11:31:38;;;;;;;3.90;3.30;;;;;;;;;;5133319;27;21481;-56
2021/04/02 11:34:03;;;;;;;3.20;2.90;;;;;;;;;;5131580;27;20094;-55
2021/04/02 11:36:28;;;;;;;3.65;3.35;;;;;;;;;;5129221;27;20110;-56
2021/04/02 11:38:54;;;;;;;3.58;2.70;;;;;;;;;;5124187;27;20031;-57
2021/04/02 11:41:19;;;;;;;2.70;2.50;;;;;;;;;;5129795;27;20015;-57
2021/04/02 11:43:44;;;;;;;4.05;3.20;;;;;;;;;;5130235;27;20146;-55
2021/04/02 11:46:09;;;;;;;2.65;2.40;;;;;;;;;;5131128;27;20076;-57
2021/04/02 11:48:34;;;;;;;4.40;4.00;;;;;;;;;;5129467;27;20424;-57
2021/04/02 11:51:00;;;;;;;4.72;3.65;;;;;;;;;;5113608;27;20543;-56
2021/04/02 11:53:25;;;;;;;4.32;3.92;;;;;;;;;;5131792;27;20061;-57
2021/04/02 11:55:50;;;;;;;4.00;3.65;;;;;;;;;;5123128;27;20023;-56
2021/04/02 11:58:16;;;;;;;4.50;4.10;;;;;;;;;;5121213;27;20026;-57
2021/04/02 12:00:41;;;;;;;3.50;3.20;;;;;;;;;;5114509;27;20451;-55
2021/04/02 12:03:07;;;;;;;4.25;3.85;;;;;;;;;;5125365;27;20026;-56
2021/04/02 12:05:32;;;;;;;3.03;1.70;;;;;;;;;;5130788;27;20026;-57
2021/04/02 12:07:57;;;;;;;4.72;4.32;;;;;;;;;;5134226;27;20034;-54
2021/04/02 12:10:23;;;;;;;4.65;3.72;;;;;;;;;;5134175;27;20127;-55
2021/04/02 12:12:48;;;;;;;5.70;5.20;;;;;;;;;;5115891;27;20027;-57
2021/04/02 12:15:13;;;;;;;5.85;5.35;;;;;;;;;;5125039;27;20498;-57
2021/04/02 12:17:39;;;;;;;5.38;4.75;;;;;;;;;;5132126;27;20358;-56
2021/04/02 12:20:09;;;;;;;6.10;5.57;;;;;;;;;;5126591;27;20024;-57
2021/04/02 12:22:35;;;;;;;8.10;7.40;;;;;;;;;;5124580;27;20107;-56
2021/04/02 12:25:00;;;;;;;7.75;7.18;;;;;;;;;;5130218;27;20109;-55
2021/04/02 12:27:25;;;;;;;9.02;6.65;;;;;;;;;;5134015;27;20258;-57
2021/04/02 12:29:51;;;;;;;9.80;8.82;;;;;;;;;;5128625;27;20034;-56
2021/04/02 12:32:16;;;;;;;9.10;8.20;;;;;;;;;;5125154;27;20020;-57
2021/04/02 12:34:41;;;;;;;6.90;5.63;;;;;;;;;;5111130;27;20394;-52
2021/04/02 12:37:07;;;;;;;9.75;8.88;;;;;;;;;;5126881;27;20385;-56
2021/04/02 12:39:32;;;;;;;9.10;8.30;;;;;;;;;;5117627;27;20023;-56
2021/04/02 12:41:57;;;;;;;7.03;6.38;;;;;;;;;;5124278;27;20027;-56
2021/04/02 12:44:22;;;;;;;8.98;8.13;;;;;;;;;;5117433;27;20386;-56
2021/04/02 12:46:48;;;;;;;10.40;9.18;;;;;;;;;;5130300;27;20014;-53
2021/04/02 12:49:13;;;;;;;8.93;8.13;;;;;;;;;;5133616;27;20043;-57
2021/04/02 12:51:38;;;;;;;8.55;7.75;;;;;;;;;;5123554;27;20051;-55
2021/04/02 12:54:04;;;;;;;6.38;5.72;;;;;;;;;;5124087;27;20487;-52
2021/04/02 12:56:29;;;;;;;7.50;6.65;;;;;;;;;;5133173;27;20516;-55
2021/04/02 12:58:54;;;;;;;8.05;7.45;;;;;;;;;;5133882;27;20037;-58
2021/04/02 13:01:19;;;;;;;8.18;7.47;;;;;;;;;;5124149;27;20027;-54
2021/04/02 13:03:44;;;;;;;7.93;7.32;;;;;;;;;;5118475;27;20023;-56
2021/04/02 13:06:10;;;;;;;6.43;5.82;;;;;;;;;;5128433;27;20032;-57
2021/04/02 13:08:35;;;;;;;9.52;6.88;;;;;;;;;;5126377;27;20023;-52
2021/04/02 13:11:00;;;;;;;5.28;4.88;;;;;;;;;;5118474;27;20012;-54
2021/04/02 13:13:26;;;;;;;7.63;5.32;;;;;;;;;;5117903;27;20087;-56
2021/04/02 13:15:51;;;;;;;5.22;4.80;;;;;;;;;;5122621;27;20019;-53
2021/04/02 13:18:16;;;;;;;3.10;2.22;;;;;;;;;;5124027;27;20019;-56
2021/04/02 13:20:41;;;;;;;5.25;3.25;;;;;;;;;;5133487;27;20011;-55
2021/04/02 13:23:07;;;;;;;5.72;5.25;;;;;;;;;;5133347;27;20072;-57
2021/04/02 13:25:32;;;;;;;5.13;4.72;;;;;;;;;;5125308;27;20015;-56
2021/04/02 13:28:06;;;;;;;5.47;5.07;;;;;;;;;;5124189;27;20019;-54
2021/04/02 13:30:32;;;;;;;4.80;4.47;;;;;;;;;;5117246;27;20027;-57
2021/04/02 13:32:58;;;;;;;6.15;5.65;;;;;;;;;;5131874;27;20133;-56
2021/04/02 13:35:26;;;;;;;6.40;5.90;;;;;;;;;;5127571;27;20123;-58
2021/04/02 13:37:52;;;;;;;7.35;6.75;;;;;;;;;;5133742;27;20069;-54
2021/04/02 13:40:17;;;;;;;7.55;6.82;;;;;;;;;;5132484;27;20042;-56
2021/04/02 13:42:43;;;;;;;6.45;5.95;;;;;;;;;;5132931;28;20462;-56
2021/04/02 13:45:09;;;;;;;6.13;5.63;;;;;;;;;;5127361;27;20023;-56
2021/04/02 13:47:34;;;;;;;6.60;6.00;;;;;;;;;;5125774;28;20076;-56
2021/04/02 13:50:00;;;;;;;6.43;5.85;;;;;;;;;;5112557;28;20134;-55
2021/04/02 13:52:25;;;;;;;6.03;5.43;;;;;;;;;;5112611;28;20024;-57
2021/04/02 13:54:50;;;;;;;6.20;5.65;;;;;;;;;;5109666;28;20069;-54
2021/04/02 13:57:16;;;;;;;5.90;5.40;;;;;;;;;;5113401;28;20043;-54
2021/04/02 13:59:42;;;;;;;6.35;5.75;;;;;;;;;;5131690;27;20104;-55
2021/04/02 14:02:07;;;;;;;3.88;3.58;;;;;;;;;;5113735;28;20092;-57
2021/04/02 14:04:33;;;;;;;7.00;5.15;;;;;;;;;;5125760;27;20047;-57
2021/04/02 14:06:58;;;;;;;6.13;5.63;;;;;;;;;;5126239;28;20481;-56
2021/04/02 14:09:23;;;;;;;5.90;5.50;;;;;;;;;;5114833;28;20020;-53
2021/04/02 14:11:48;;;;;;;4.93;4.53;;;;;;;;;;5120565;28;20019;-56
2021/04/02 14:14:14;;;;;;;5.10;4.68;;;;;;;;;;5127245;28;20050;-56
2021/04/02 14:16:42;;;;;;;5.38;4.88;;;;;;;;;;5132017;28;20462;-55
2021/04/02 14:19:07;;;;;;;4.28;3.97;;;;;;;;;;5118856;27;20019;-57
2021/04/02 14:21:32;;;;;;;2.05;1.90;;;;;;;;;;5118896;28;20008;-54
2021/04/02 14:23:57;;;;;;;3.30;3.08;;;;;;;;;;5129926;28;20034;-57
2021/04/02 14:26:22;;;;;;;4.32;3.63;;;;;;;;;;5125643;28;20028;-56
2021/04/02 14:28:48;;;;;;;5.25;4.75;;;;;;;;;;5110973;28;20024;-55
2021/04/02 14:31:13;;;;;;;5.28;4.82;;;;;;;;;;5114617;27;20027;-58
2021/04/02 14:33:38;;;;;;;4.63;4.22;;;;;;;;;;5122148;28;20131;-56
2021/04/02 14:36:04;;;;;;;5.13;4.70;;;;;;;;;;5126702;28;20371;-55
2021/04/02 14:38:29;;;;;;;5.65;4.88;;;;;;;;;;5128031;27;20018;-55